Main page
METAR-TAF:

METAR-TAF

Airports :

Ingolstadt Manching Airport

Ingolstadt, Germany

latitude: 48-43N, longitude: 011-32E, elevation: 367 m

Current weather observation

The report was made 26 minutes ago, at 23:20 UTC
Wind 9 kt from the West
Temperature 22°C
Humidity 57%
Pressure 1012 hPa

METAR: ETSI 202320Z AUTO 27009KT //// // ////// 22/13 Q1012 ///

Time: 01:46 (23:46 UTC)

Forecast

The report was made 13 hours and 31 minutes ago, at 10:15 UTC
Forecast valid from 20 at 11 UTC to 20 at 20 UTC
Wind 5 kt from the East
Visibility: 1120 m
Few clouds at a height of 12000 ft
Scattered clouds at a height of 28000 ft

TAF: ETSI 201015Z 2011/2020 08005KT 9999 NSW FEW120 SCT280 CANCEL 1120

Weather observations and forecasts of more than 4000 airports (METAR and TAF reports).

The available stations are represented by yellow and red dots on the map.

Hover mouse over dot to see the name of the station.

Then click to see weather observations and forecasts.

To change the map : click on the green buttons with a black cross to zoom in, on the green button with a dash to zoom out, or on the green arrows for adjacent maps.


METAR-TAF: